Time;durP1;ratioP1;P1;durP2;ratioP2;P2;SDS_P1;SDS_P2;PMS_P1;PMS_P2;Temp;Humidity;BMP_temperature;BMP_pressure;BME280_temperature;BME280_humidity;BME280_pressure;Samples;Min_cycle;Max_cycle;Signal;HPM_P1;HPM_P2
2021/03/16 00:00:09;;;;;;;7.28;3.28;;;6.60;99.90;;;;;;5045532;28;20416;-49
2021/03/16 00:02:35;;;;;;;6.45;2.50;;;6.50;99.90;;;;;;5036479;28;20079;-50
2021/03/16 00:05:02;;;;;;;7.18;3.47;;;6.60;99.90;;;;;;5065316;28;20036;-50
2021/03/16 00:07:28;;;;;;;6.55;3.17;;;6.60;99.90;;;;;;5053463;28;20025;-47
2021/03/16 00:09:54;;;;;;;7.15;2.95;;;6.60;99.90;;;;;;5052812;28;20574;-47
2021/03/16 00:12:19;;;;;;;3.70;2.38;;;6.50;99.90;;;;;;5052806;28;20104;-50
2021/03/16 00:14:45;;;;;;;2.00;1.40;;;6.60;99.90;;;;;;5053321;28;20033;-51
2021/03/16 00:17:11;;;;;;;3.20;2.05;;;6.50;99.90;;;;;;5052889;28;20040;-51
2021/03/16 00:19:37;;;;;;;2.53;1.50;;;6.50;99.90;;;;;;5053002;28;20484;-50
2021/03/16 00:22:03;;;;;;;2.05;1.60;;;6.50;99.90;;;;;;5053178;28;20071;-49
2021/03/16 00:24:29;;;;;;;3.80;1.80;;;6.40;99.90;;;;;;5051934;28;20136;-49
2021/03/16 00:26:55;;;;;;;2.15;1.60;;;6.50;99.90;;;;;;5070478;28;20040;-52
2021/03/16 00:29:21;;;;;;;1.15;0.90;;;6.50;99.90;;;;;;5073447;28;20472;-50
2021/03/16 00:31:47;;;;;;;1.50;1.30;;;6.40;99.90;;;;;;5072731;28;20054;-53
2021/03/16 00:34:13;;;;;;;2.90;1.45;;;6.30;99.90;;;;;;5075254;28;20036;-48
2021/03/16 00:36:39;;;;;;;3.15;1.23;;;6.30;99.90;;;;;;5074819;28;20052;-49
2021/03/16 00:39:08;;;;;;;1.40;1.00;;;6.30;99.90;;;;;;5074908;28;20112;-53
2021/03/16 00:41:34;;;;;;;2.33;1.70;;;6.30;99.90;;;;;;5074505;28;20033;-52
2021/03/16 00:44:01;;;;;;;2.05;1.33;;;6.40;99.90;;;;;;5075309;28;20353;-50
2021/03/16 00:46:27;;;;;;;3.42;1.63;;;6.40;99.90;;;;;;5074574;28;20099;-46
2021/03/16 00:48:52;;;;;;;2.60;1.92;;;6.40;99.90;;;;;;5072319;28;20131;-54
2021/03/16 00:51:18;;;;;;;1.83;1.02;;;6.50;99.90;;;;;;5074758;28;20049;-53
2021/03/16 00:53:44;;;;;;;3.15;2.00;;;6.40;99.90;;;;;;5074583;28;20481;-51
2021/03/16 00:56:10;;;;;;;2.75;1.80;;;6.40;99.90;;;;;;5072672;28;20029;-50
2021/03/16 00:58:36;;;;;;;1.85;1.40;;;6.40;99.90;;;;;;5074993;28;20460;-52
2021/03/16 01:01:05;;;;;;;3.35;1.83;;;6.40;99.90;;;;;;5038646;28;20488;-50
2021/03/16 01:03:30;;;;;;;3.35;2.15;;;6.40;99.90;;;;;;5076361;28;20089;-51
2021/03/16 01:05:56;;;;;;;2.60;1.67;;;6.40;99.90;;;;;;5087767;28;20389;-47
2021/03/16 01:08:22;;;;;;;3.80;2.17;;;6.40;99.90;;;;;;5042930;28;20047;-47
2021/03/16 01:10:49;;;;;;;6.90;2.38;;;6.40;99.90;;;;;;5074617;28;20115;-50
2021/03/16 01:13:16;;;;;;;2.95;1.83;;;6.30;99.90;;;;;;5073879;28;20024;-47
2021/03/16 01:15:42;;;;;;;5.90;2.40;;;6.40;99.90;;;;;;5072427;28;20059;-50
2021/03/16 01:18:08;;;;;;;8.75;2.22;;;6.40;99.90;;;;;;5074122;28;20029;-48
2021/03/16 01:20:35;;;;;;;6.50;2.80;;;6.40;99.90;;;;;;5073368;28;20035;-49
2021/03/16 01:23:01;;;;;;;3.85;2.15;;;6.30;99.90;;;;;;5071589;28;20047;-49
2021/03/16 01:25:27;;;;;;;4.32;1.80;;;6.40;99.90;;;;;;5071916;28;20372;-50
2021/03/16 01:27:54;;;;;;;6.07;2.40;;;6.40;99.90;;;;;;5038512;28;20037;-51
2021/03/16 01:30:21;;;;;;;3.80;1.88;;;6.40;99.90;;;;;;5071860;28;20040;-48
2021/03/16 01:32:47;;;;;;;3.53;1.77;;;6.30;99.90;;;;;;5071810;28;20123;-46
2021/03/16 01:35:15;;;;;;;2.88;1.98;;;6.20;99.90;;;;;;4962498;28;20173;-53
2021/03/16 01:37:41;;;;;;;4.97;1.77;;;6.30;99.90;;;;;;5011943;28;20046;-46
2021/03/16 01:40:13;;;;;;;4.28;2.30;;;6.20;99.90;;;;;;5011813;28;20076;-51
2021/03/16 01:42:39;;;;;;;2.65;1.58;;;6.20;99.90;;;;;;4995626;28;20117;-49
2021/03/16 01:45:11;;;;;;;2.40;1.50;;;6.10;99.90;;;;;;5011835;28;20397;-51
2021/03/16 01:47:48;;;;;;;4.30;1.80;;;6.00;99.90;;;;;;4995596;28;20053;-48
2021/03/16 01:50:19;;;;;;;2.65;2.00;;;6.00;99.90;;;;;;5012206;28;20038;-49
2021/03/16 01:52:46;;;;;;;2.20;1.30;;;6.10;99.90;;;;;;5011944;28;20536;-49
2021/03/16 01:55:13;;;;;;;3.60;1.70;;;6.00;99.90;;;;;;5031447;28;20096;-50
2021/03/16 01:57:41;;;;;;;2.53;1.52;;;6.00;99.90;;;;;;5015198;28;20060;-50
2021/03/16 02:00:08;;;;;;;1.85;1.50;;;5.90;99.90;;;;;;5031486;28;20121;-51
2021/03/16 02:02:35;;;;;;;3.80;1.75;;;6.00;99.90;;;;;;5015269;28;20076;-47
2021/03/16 02:05:02;;;;;;;4.07;2.10;;;6.00;99.90;;;;;;4998955;28;20057;-47
2021/03/16 02:07:41;;;;;;;3.05;1.50;;;6.00;99.90;;;;;;5073036;28;20094;-48
2021/03/16 02:10:09;;;;;;;3.13;2.03;;;6.00;99.90;;;;;;5073803;28;20032;-48
2021/03/16 02:12:47;;;;;;;2.83;1.75;;;6.00;99.90;;;;;;5071602;28;20040;-47
2021/03/16 02:15:23;;;;;;;2.47;1.48;;;5.90;99.90;;;;;;5073622;28;20028;-48
2021/03/16 02:17:55;;;;;;;3.10;2.25;;;5.90;99.90;;;;;;5073858;28;20068;-49
2021/03/16 02:20:51;;;;;;;3.67;1.92;;;5.90;99.90;;;;;;5073586;28;20028;-50
2021/03/16 02:23:25;;;;;;;1.83;1.15;;;5.90;99.90;;;;;;5073323;28;20032;-50
2021/03/16 02:26:06;;;;;;;2.10;1.40;;;5.90;99.90;;;;;;5078048;28;20024;-49
2021/03/16 02:28:57;;;;;;;1.95;1.52;;;5.80;99.90;;;;;;5086912;28;20036;-47
2021/03/16 02:31:26;;;;;;;2.03;1.58;;;5.90;99.90;;;;;;5073191;28;20108;-50
2021/03/16 02:33:53;;;;;;;1.85;1.65;;;5.80;99.90;;;;;;5073637;28;20024;-49
2021/03/16 02:36:20;;;;;;;2.20;1.70;;;5.80;99.90;;;;;;5073552;28;20431;-49
2021/03/16 02:38:50;;;;;;;4.22;2.00;;;5.80;99.90;;;;;;5073561;28;20514;-50
2021/03/16 02:41:17;;;;;;;3.85;1.95;;;5.70;99.90;;;;;;5073516;28;20032;-52
2021/03/16 02:43:44;;;;;;;2.10;1.48;;;5.70;99.90;;;;;;5071962;28;20029;-50
2021/03/16 02:46:11;;;;;;;2.00;1.30;;;5.70;99.90;;;;;;5073205;28;20111;-49
2021/03/16 02:48:38;;;;;;;2.78;1.50;;;5.60;99.90;;;;;;5075808;28;20036;-46
2021/03/16 02:51:05;;;;;;;2.67;1.50;;;5.60;99.90;;;;;;5077033;28;20055;-50
2021/03/16 02:53:33;;;;;;;1.75;1.30;;;5.50;99.90;;;;;;5074929;28;20071;-48
2021/03/16 02:56:00;;;;;;;2.25;1.40;;;5.50;99.90;;;;;;5076668;28;20060;-51
2021/03/16 02:58:28;;;;;;;1.83;1.25;;;5.40;99.90;;;;;;5077100;28;20016;-49
2021/03/16 03:00:54;;;;;;;1.85;1.45;;;5.40;99.90;;;;;;5076836;28;20024;-50
2021/03/16 03:03:22;;;;;;;1.10;1.00;;;5.30;99.90;;;;;;5076748;28;20524;-49
2021/03/16 03:05:51;;;;;;;2.28;1.23;;;5.30;99.90;;;;;;5077013;28;20021;-52
2021/03/16 03:08:19;;;;;;;1.70;1.25;;;5.30;99.90;;;;;;5076112;28;20035;-48
2021/03/16 03:10:46;;;;;;;1.90;1.35;;;5.20;99.90;;;;;;5076783;28;20067;-48
2021/03/16 03:13:11;;;;;;;1.33;1.20;;;5.20;99.90;;;;;;5076361;28;20029;-50
2021/03/16 03:15:37;;;;;;;1.45;1.05;;;5.10;99.90;;;;;;5076336;28;20031;-50
2021/03/16 03:18:03;;;;;;;1.83;1.00;;;;;;;;;;5074422;28;20479;-52
2021/03/16 03:20:30;;;;;;;1.80;1.30;;;5.10;99.90;;;;;;5075895;28;20024;-49
2021/03/16 03:23:22;;;;;;;1.75;1.30;;;5.10;99.90;;;;;;5076217;28;20024;-50
2021/03/16 03:26:42;;;;;;;2.42;1.58;;;5.20;99.90;;;;;;5079985;28;20035;-47
2021/03/16 03:29:10;;;;;;;2.88;1.38;;;5.10;99.90;;;;;;5046409;28;20504;-49
2021/03/16 03:31:37;;;;;;;2.10;1.48;;;5.10;99.90;;;;;;5054012;28;20461;-49
2021/03/16 03:34:04;;;;;;;2.45;1.30;;;5.10;99.90;;;;;;5054042;28;20424;-52
2021/03/16 03:36:33;;;;;;;3.72;1.67;;;5.10;99.90;;;;;;5053894;28;20036;-52
2021/03/16 03:38:59;;;;;;;1.83;1.40;;;5.10;99.90;;;;;;5054139;28;20061;-52
2021/03/16 03:41:27;;;;;;;1.98;1.30;;;5.10;99.90;;;;;;5053617;28;20045;-48
2021/03/16 03:43:53;;;;;;;4.18;1.63;;;5.10;99.90;;;;;;5004071;28;20041;-48
2021/03/16 03:46:20;;;;;;;1.60;1.30;;;4.80;99.90;;;;;;4961629;28;20101;-50
2021/03/16 03:48:48;;;;;;;2.97;1.48;;;4.80;99.90;;;;;;4974828;28;20078;-47
2021/03/16 03:51:14;;;;;;;2.45;1.58;;;4.80;99.90;;;;;;4990619;28;20047;-49
2021/03/16 03:53:40;;;;;;;2.33;1.20;;;4.80;99.90;;;;;;4974171;28;20042;-48
2021/03/16 03:56:08;;;;;;;1.88;1.20;;;4.80;99.90;;;;;;4974819;28;20034;-53
2021/03/16 03:58:38;;;;;;;3.28;1.65;;;4.90;99.90;;;;;;4973963;28;20122;-50
2021/03/16 04:01:05;;;;;;;3.05;1.45;;;4.90;99.90;;;;;;4974723;28;20035;-48
2021/03/16 04:03:32;;;;;;;3.45;1.80;;;4.80;99.90;;;;;;4974363;28;20079;-52
2021/03/16 04:05:59;;;;;;;2.15;1.38;;;4.90;99.90;;;;;;5007795;28;20034;-50
2021/03/16 04:08:26;;;;;;;3.00;1.95;;;4.80;99.90;;;;;;5013126;28;20092;-48
2021/03/16 04:10:52;;;;;;;2.35;1.23;;;4.90;99.90;;;;;;5013505;28;20034;-49
2021/03/16 04:13:18;;;;;;;1.83;1.60;;;4.80;99.90;;;;;;5013186;28;20026;-49
2021/03/16 04:15:44;;;;;;;1.92;1.13;;;4.80;99.90;;;;;;5013387;28;20109;-49
2021/03/16 04:18:12;;;;;;;2.05;1.45;;;4.70;99.90;;;;;;4996718;28;20454;-47
2021/03/16 04:20:39;;;;;;;1.70;1.50;;;4.80;99.90;;;;;;5012669;28;20034;-52
2021/03/16 04:23:05;;;;;;;1.90;1.17;;;4.70;99.90;;;;;;5022075;28;20124;-50
2021/03/16 04:25:30;;;;;;;1.65;1.27;;;4.70;99.90;;;;;;5031782;28;20128;-49
2021/03/16 04:27:58;;;;;;;2.15;1.48;;;4.60;99.90;;;;;;5032110;28;20375;-49
2021/03/16 04:30:24;;;;;;;1.23;1.10;;;4.70;99.90;;;;;;5032940;28;20045;-48
2021/03/16 04:32:50;;;;;;;1.90;1.45;;;4.70;99.90;;;;;;5011341;28;20040;-51
2021/03/16 04:35:15;;;;;;;2.53;1.65;;;4.70;99.90;;;;;;5059097;28;20501;-51
2021/03/16 04:37:41;;;;;;;1.75;1.42;;;4.70;99.90;;;;;;5093142;28;20123;-49
2021/03/16 04:40:08;;;;;;;2.15;1.55;;;4.70;99.90;;;;;;5092858;28;20432;-47
2021/03/16 04:42:34;;;;;;;2.38;1.48;;;4.70;99.90;;;;;;5058917;28;20072;-47
2021/03/16 04:45:00;;;;;;;2.28;1.83;;;4.70;99.90;;;;;;5092332;28;20060;-51
2021/03/16 04:47:26;;;;;;;4.50;2.22;;;4.80;99.90;;;;;;5092599;28;20024;-48
2021/03/16 04:49:51;;;;;;;2.45;1.50;;;4.70;99.90;;;;;;5092585;28;20088;-51
2021/03/16 04:52:17;;;;;;;2.90;1.70;;;4.70;99.90;;;;;;5092517;28;20039;-50
2021/03/16 04:54:43;;;;;;;1.60;1.20;;;4.70;99.90;;;;;;5059111;28;20095;-50
2021/03/16 04:57:09;;;;;;;2.97;1.52;;;4.60;99.90;;;;;;5070766;28;20028;-48
2021/03/16 04:59:34;;;;;;;2.33;1.52;;;4.70;99.90;;;;;;5094829;28;20064;-52
2021/03/16 05:02:01;;;;;;;5.85;1.98;;;4.60;99.90;;;;;;5094980;28;20447;-50
2021/03/16 05:04:27;;;;;;;2.95;1.70;;;4.70;99.90;;;;;;5109913;28;20105;-52
2021/03/16 05:06:52;;;;;;;2.53;1.80;;;4.70;99.90;;;;;;5094580;28;20024;-51
2021/03/16 05:09:18;;;;;;;2.20;1.33;;;4.70;99.90;;;;;;5094445;28;20030;-51
2021/03/16 05:11:44;;;;;;;2.13;1.65;;;4.60;99.90;;;;;;5093567;28;20028;-48
2021/03/16 05:14:09;;;;;;;2.83;1.63;;;4.60;99.90;;;;;;5094336;28;20113;-48
2021/03/16 05:16:35;;;;;;;1.95;1.40;;;4.60;99.90;;;;;;5109649;28;20032;-47
2021/03/16 05:19:01;;;;;;;1.63;1.23;;;4.70;99.90;;;;;;5094667;28;20107;-46
2021/03/16 05:21:29;;;;;;;2.15;1.52;;;4.60;99.90;;;;;;5093868;28;20031;-50
2021/03/16 05:23:54;;;;;;;2.55;1.25;;;4.60;99.90;;;;;;5094633;28;20042;-48
2021/03/16 05:26:20;;;;;;;2.33;1.60;;;4.50;99.90;;;;;;5094482;28;20028;-50
2021/03/16 05:28:46;;;;;;;2.40;1.52;;;4.60;99.90;;;;;;5091262;28;20044;-52
2021/03/16 05:31:12;;;;;;;2.33;1.50;;;4.50;99.90;;;;;;5080621;28;20031;-49
2021/03/16 05:33:37;;;;;;;1.20;0.85;;;4.50;99.90;;;;;;5067630;28;20127;-50
2021/03/16 05:36:04;;;;;;;1.63;1.35;;;4.40;99.90;;;;;;5076021;28;20028;-48
2021/03/16 05:38:29;;;;;;;1.58;1.10;;;4.40;99.90;;;;;;5041241;28;20035;-51
2021/03/16 05:40:56;;;;;;;2.30;1.65;;;4.50;99.90;;;;;;5083462;28;20071;-49
2021/03/16 05:43:22;;;;;;;2.45;1.38;;;4.50;99.90;;;;;;5076070;28;20036;-49
2021/03/16 05:45:48;;;;;;;2.00;1.55;;;4.50;99.90;;;;;;5054905;28;20102;-50
2021/03/16 05:48:15;;;;;;;0.80;0.80;;;4.50;99.90;;;;;;5074190;28;20043;-50
2021/03/16 05:50:40;;;;;;;2.00;1.48;;;4.40;99.90;;;;;;5053908;28;20040;-46
2021/03/16 05:53:06;;;;;;;2.38;1.58;;;4.50;99.90;;;;;;5074117;28;20031;-49
2021/03/16 05:55:32;;;;;;;2.10;1.38;;;4.60;99.90;;;;;;5071991;28;20543;-46
2021/03/16 05:57:59;;;;;;;2.00;1.52;;;4.60;99.90;;;;;;5055083;28;20047;-52
2021/03/16 06:00:25;;;;;;;1.73;1.48;;;4.70;99.90;;;;;;5080151;28;20035;-51
2021/03/16 06:02:51;;;;;;;1.65;1.20;;;4.70;99.90;;;;;;5062041;28;20028;-48
2021/03/16 06:05:17;;;;;;;2.72;1.35;;;4.80;99.90;;;;;;5087365;28;20110;-47
2021/03/16 06:07:50;;;;;;;3.53;1.98;;;4.80;99.90;;;;;;5074050;28;20032;-51
2021/03/16 06:10:21;;;;;;;3.22;1.33;;;4.90;99.90;;;;;;5074278;28;20040;-48
2021/03/16 06:12:47;;;;;;;2.63;1.58;;;4.80;99.90;;;;;;5084502;28;20111;-51
2021/03/16 06:15:16;;;;;;;2.85;1.77;;;4.80;99.90;;;;;;5073716;28;20025;-46
2021/03/16 06:17:52;;;;;;;2.13;1.45;;;4.80;99.90;;;;;;5071670;28;20044;-48
2021/03/16 06:20:31;;;;;;;3.30;1.58;;;5.00;99.90;;;;;;5073434;28;20029;-49
2021/03/16 06:23:10;;;;;;;3.08;1.80;;;5.00;99.90;;;;;;5076485;28;20028;-50
2021/03/16 06:25:42;;;;;;;2.38;1.65;;;5.00;99.90;;;;;;5075467;28;20043;-47
2021/03/16 06:28:09;;;;;;;3.30;1.90;;;5.10;99.90;;;;;;5074627;28;20049;-47
2021/03/16 06:30:37;;;;;;;1.42;1.30;;;5.10;99.90;;;;;;5018108;28;20028;-49
2021/03/16 06:33:03;;;;;;;2.92;2.05;;;5.20;99.90;;;;;;5092390;28;20107;-47
2021/03/16 06:35:30;;;;;;;1.88;1.05;;;5.20;99.90;;;;;;5042713;28;20026;-54
2021/03/16 06:38:21;;;;;;;3.13;1.90;;;5.20;99.90;;;;;;5058527;28;20043;-51
2021/03/16 06:40:47;;;;;;;2.03;1.30;;;5.20;99.90;;;;;;5076874;28;20142;-53
2021/03/16 06:43:13;;;;;;;1.63;1.35;;;5.30;99.90;;;;;;5078466;28;20197;-49
2021/03/16 06:45:40;;;;;;;3.03;1.52;;;5.30;99.90;;;;;;5015065;28;20087;-47
2021/03/16 06:48:16;;;;;;;2.03;1.80;;;5.40;99.90;;;;;;5092610;28;20066;-52
2021/03/16 06:50:43;;;;;;;3.25;1.60;;;5.40;99.90;;;;;;5051495;28;20036;-54
2021/03/16 06:53:35;;;;;;;3.72;2.15;;;5.50;99.90;;;;;;5054127;28;20387;-55
2021/03/16 06:56:01;;;;;;;1.45;1.35;;;5.60;99.90;;;;;;5077593;28;20058;-50
2021/03/16 06:58:33;;;;;;;1.75;1.33;;;5.50;99.90;;;;;;5094623;28;20451;-49
2021/03/16 07:01:18;;;;;;;1.67;1.30;;;5.60;99.90;;;;;;5098407;28;20077;-53
2021/03/16 07:03:45;;;;;;;1.30;1.17;;;5.60;99.90;;;;;;5084190;28;20501;-49
2021/03/16 07:06:18;;;;;;;1.00;0.90;;;5.60;99.90;;;;;;5083981;28;20040;-50
2021/03/16 07:08:45;;;;;;;2.65;1.85;;;5.60;99.90;;;;;;5086857;28;20063;-49
2021/03/16 07:11:14;;;;;;;1.50;1.40;;;5.70;99.90;;;;;;5095031;28;20020;-51
2021/03/16 07:13:41;;;;;;;2.38;1.75;;;5.90;99.90;;;;;;5095443;28;20020;-56
2021/03/16 07:16:08;;;;;;;2.58;1.73;;;5.90;99.90;;;;;;5093136;28;20073;-45
2021/03/16 07:18:36;;;;;;;2.20;1.65;;;6.00;99.90;;;;;;5095552;28;20020;-46
2021/03/16 07:21:30;;;;;;;2.00;1.50;;;6.10;99.90;;;;;;5059649;28;20047;-47
2021/03/16 07:24:22;;;;;;;1.70;1.38;;;6.10;99.90;;;;;;5088020;28;20040;-50
2021/03/16 07:26:49;;;;;;;5.00;2.60;;;6.20;99.90;;;;;;5092153;28;20186;-51
2021/03/16 07:29:16;;;;;;;2.13;1.75;;;6.20;99.90;;;;;;5094377;28;20044;-50
2021/03/16 07:31:43;;;;;;;4.68;3.50;;;;;;;;;;5093822;28;20040;-49
2021/03/16 07:34:10;;;;;;;6.03;3.05;;;6.50;99.90;;;;;;5093226;28;20046;-50
2021/03/16 07:36:38;;;;;;;1.70;1.52;;;6.50;99.90;;;;;;5094487;28;20453;-50
2021/03/16 07:39:10;;;;;;;3.80;2.15;;;6.60;99.90;;;;;;5094423;28;20176;-50
2021/03/16 07:41:37;;;;;;;2.93;2.13;;;6.80;99.90;;;;;;5094075;28;20028;-49
2021/03/16 07:44:11;;;;;;;7.22;3.35;;;6.80;99.90;;;;;;5094333;28;20047;-49
2021/03/16 07:46:44;;;;;;;1.52;1.10;;;6.90;99.90;;;;;;5093413;28;20375;-50
2021/03/16 07:49:12;;;;;;;3.78;2.10;;;7.00;99.90;;;;;;5093587;28;20044;-50
2021/03/16 07:51:41;;;;;;;3.25;1.75;;;7.00;99.90;;;;;;5093652;28;20106;-50
2021/03/16 07:54:08;;;;;;;2.65;1.63;;;7.00;99.90;;;;;;5077661;28;20413;-49
2021/03/16 07:56:35;;;;;;;1.73;1.60;;;7.00;99.90;;;;;;5092453;28;20486;-50
2021/03/16 07:59:03;;;;;;;0.77;0.77;;;7.20;99.90;;;;;;5094612;28;20024;-49
2021/03/16 08:01:29;;;;;;;2.13;1.58;;;6.90;99.90;;;;;;5092413;28;20032;-49
2021/03/16 08:04:09;;;;;;;1.60;1.50;;;7.10;99.90;;;;;;5058682;28;20093;-51
2021/03/16 08:06:36;;;;;;;2.63;1.90;;;7.20;99.90;;;;;;5092202;28;20036;-50
2021/03/16 08:09:05;;;;;;;1.80;1.17;;;;;;;;;;5075439;28;20047;-49
2021/03/16 08:11:42;;;;;;;2.40;1.60;;;7.70;99.90;;;;;;5092355;28;20085;-50
2021/03/16 08:14:08;;;;;;;3.50;2.33;;;7.80;99.90;;;;;;5091797;28;20066;-50
2021/03/16 08:16:41;;;;;;;2.03;1.70;;;7.80;99.90;;;;;;5092134;28;20036;-50
2021/03/16 08:19:15;;;;;;;2.25;1.58;;;8.00;99.90;;;;;;5091398;28;20067;-50
2021/03/16 08:21:42;;;;;;;2.38;1.92;;;;;;;;;;5057355;28;20097;-50
2021/03/16 08:24:12;;;;;;;2.92;1.98;;;;;;;;;;5091489;28;20052;-49
2021/03/16 08:26:49;;;;;;;2.83;2.15;;;;;;;;;;5051326;28;20033;-50
2021/03/16 08:29:15;;;;;;;3.63;2.25;;;;;;;;;;5045047;28;20055;-50
2021/03/16 08:31:41;;;;;;;1.55;1.33;;;8.40;99.90;;;;;;5044405;28;20127;-51
2021/03/16 08:34:08;;;;;;;1.85;1.70;;;8.50;99.90;;;;;;5036810;28;20040;-49
2021/03/16 08:36:44;;;;;;;3.03;2.20;;;;;;;;;;5054014;28;20093;-50
2021/03/16 08:39:26;;;;;;;2.22;1.50;;;;;;;;;;5070798;28;20028;-51
2021/03/16 08:41:55;;;;;;;1.90;1.70;;;9.10;99.90;;;;;;5071174;28;20040;-50
2021/03/16 08:44:21;;;;;;;2.05;1.70;;;9.10;99.90;;;;;;5070384;28;20021;-50
2021/03/16 08:46:47;;;;;;;3.30;2.22;;;9.10;99.90;;;;;;5071369;28;20771;-50
2021/03/16 08:49:17;;;;;;;2.25;1.60;;;;;;;;;;5069083;28;20040;-49
2021/03/16 08:51:43;;;;;;;2.72;2.00;;;;;;;;;;5071726;28;20114;-50
2021/03/16 08:54:09;;;;;;;1.77;1.63;;;9.80;99.90;;;;;;5071612;28;20066;-49
2021/03/16 08:56:35;;;;;;;2.97;1.83;;;9.70;99.90;;;;;;5070926;28;20037;-50
2021/03/16 08:59:05;;;;;;;1.63;1.42;;;9.80;99.90;;;;;;5103110;27;20115;-49
2021/03/16 09:01:33;;;;;;;2.28;1.70;;;;;;;;;;5052171;28;20048;-50
2021/03/16 09:04:09;;;;;;;1.05;0.95;;;;;;;;;;5081729;28;20074;-50
2021/03/16 09:06:35;;;;;;;1.05;1.00;;;10.60;99.90;;;;;;5057294;28;20135;-49
2021/03/16 09:09:01;;;;;;;1.13;1.08;;;10.80;99.90;;;;;;5054592;28;20123;-50
2021/03/16 09:11:28;;;;;;;1.13;1.05;;;;;;;;;;5073901;28;20103;-50
2021/03/16 09:14:05;;;;;;;2.55;2.05;;;10.60;99.90;;;;;;5073946;28;20031;-49
2021/03/16 09:16:32;;;;;;;2.08;1.88;;;10.80;99.90;;;;;;5074065;28;20029;-50
2021/03/16 09:18:58;;;;;;;1.33;1.23;;;10.80;99.90;;;;;;5073763;28;20033;-49
2021/03/16 09:21:24;;;;;;;1.83;1.48;;;10.70;99.90;;;;;;5055126;28;20082;-49
2021/03/16 09:23:50;;;;;;;1.75;1.65;;;10.80;99.90;;;;;;5073679;28;20059;-51
2021/03/16 09:26:29;;;;;;;2.70;1.60;;;11.20;99.90;;;;;;5073748;28;20426;-50
2021/03/16 09:28:55;;;;;;;2.63;1.58;;;11.40;99.90;;;;;;5071653;28;20068;-52
2021/03/16 09:31:22;;;;;;;2.13;1.88;;;11.60;99.90;;;;;;5088273;28;20043;-49
2021/03/16 09:33:48;;;;;;;1.33;1.23;;;11.30;99.90;;;;;;5073956;28;20444;-48
2021/03/16 09:36:25;;;;;;;0.90;0.90;;;11.00;99.90;;;;;;5088605;28;20074;-49
2021/03/16 09:38:58;;;;;;;1.98;1.77;;;11.00;99.90;;;;;;5036319;28;20068;-49
2021/03/16 09:41:24;;;;;;;4.93;2.78;;;10.60;99.90;;;;;;5088584;28;20037;-50
2021/03/16 09:43:50;;;;;;;2.38;1.67;;;10.80;99.90;;;;;;5073594;28;20102;-50
2021/03/16 09:46:17;;;;;;;2.92;1.63;;;10.80;99.90;;;;;;5073198;28;20020;-50
2021/03/16 09:48:52;;;;;;;5.95;3.50;;;10.30;99.90;;;;;;5073568;28;20071;-50
2021/03/16 09:51:21;;;;;;;3.13;2.15;;;10.50;99.90;;;;;;5073208;28;20549;-51
2021/03/16 09:53:52;;;;;;;4.28;2.50;;;;;;;;;;5073327;28;20036;-49
2021/03/16 09:56:18;;;;;;;1.67;1.58;;;;;;;;;;5072855;28;20047;-49
2021/03/16 09:58:51;;;;;;;3.78;2.47;;;11.70;99.90;;;;;;5073886;28;20032;-49
2021/03/16 10:01:21;;;;;;;2.15;1.80;;;12.10;99.90;;;;;;5071061;28;20040;-50
2021/03/16 10:04:01;;;;;;;5.95;3.25;;;12.40;99.90;;;;;;5073828;28;20146;-50
2021/03/16 10:06:37;;;;;;;4.10;2.97;;;12.20;99.90;;;;;;5073383;28;20031;-50
2021/03/16 10:09:21;;;;;;;2.65;2.10;;;12.20;99.90;;;;;;5088087;28;20496;-49
2021/03/16 10:11:48;;;;;;;5.43;3.72;;;12.40;99.90;;;;;;5073031;28;20024;-49
2021/03/16 10:14:24;;;;;;;1.30;1.20;;;12.60;99.90;;;;;;5088234;28;20040;-51
2021/03/16 10:16:54;;;;;;;2.28;1.70;;;12.50;99.90;;;;;;5073186;28;20032;-48
2021/03/16 10:19:24;;;;;;;5.20;3.33;;;12.40;99.90;;;;;;5078463;28;20028;-50
2021/03/16 10:21:50;;;;;;;4.68;3.00;;;12.50;99.90;;;;;;5086784;28;20070;-49
2021/03/16 10:24:27;;;;;;;2.17;1.48;;;12.50;99.90;;;;;;5064618;28;20036;-52
2021/03/16 10:26:59;;;;;;;1.40;1.13;;;11.90;99.90;;;;;;5088214;28;20048;-49
2021/03/16 10:29:24;;;;;;;2.25;1.67;;;11.70;99.90;;;;;;5092313;28;20127;-46
2021/03/16 10:31:50;;;;;;;5.25;4.20;;;11.90;99.90;;;;;;5092004;28;20060;-49
2021/03/16 10:34:16;;;;;;;3.50;1.95;;;11.60;99.90;;;;;;5082863;28;20078;-50
2021/03/16 10:36:42;;;;;;;4.15;2.40;;;11.00;99.90;;;;;;5073259;28;20372;-52
2021/03/16 10:39:08;;;;;;;3.65;2.20;;;10.90;99.90;;;;;;5079051;28;20012;-50
2021/03/16 10:41:33;;;;;;;4.32;2.90;;;10.50;99.90;;;;;;5083491;28;20031;-51
2021/03/16 10:43:59;;;;;;;1.13;1.02;;;10.50;99.90;;;;;;5093254;28;20121;-50
2021/03/16 10:46:25;;;;;;;2.45;2.03;;;10.60;99.90;;;;;;5089684;28;20043;-54
2021/03/16 10:48:51;;;;;;;2.08;1.48;;;10.70;99.90;;;;;;5093409;28;20069;-53
2021/03/16 10:51:17;;;;;;;1.17;1.05;;;10.40;99.90;;;;;;5092655;28;20044;-51
2021/03/16 10:53:43;;;;;;;2.92;2.60;;;10.00;99.90;;;;;;5093032;28;20028;-50
2021/03/16 10:56:09;;;;;;;1.75;0.85;;;10.20;99.90;;;;;;5057476;28;20036;-53
2021/03/16 10:58:35;;;;;;;1.73;1.13;;;9.90;99.90;;;;;;5093072;28;20042;-49
2021/03/16 11:01:01;;;;;;;1.40;1.15;;;9.80;99.90;;;;;;5092876;28;20110;-51
2021/03/16 11:03:27;;;;;;;2.20;1.48;;;;;;;;;;5090725;28;20039;-52
2021/03/16 11:05:53;;;;;;;1.35;1.25;;;;;;;;;;5056708;28;20036;-53
2021/03/16 11:08:19;;;;;;;7.70;3.85;;;;;;;;;;5058305;28;20057;-50
2021/03/16 11:10:45;;;;;;;8.82;3.95;;;;;;;;;;5114875;28;20035;-54
2021/03/16 11:13:12;;;;;;;12.40;6.45;;;9.80;99.90;;;;;;5114871;28;20042;-55
2021/03/16 11:15:38;;;;;;;10.05;5.10;;;9.70;99.90;;;;;;5114588;28;20118;-50
2021/03/16 11:18:04;;;;;;;2.22;1.95;;;9.60;99.90;;;;;;5114729;28;20039;-52
2021/03/16 11:20:30;;;;;;;3.45;2.53;;;9.50;99.90;;;;;;5050153;28;20040;-51
2021/03/16 11:22:56;;;;;;;3.42;3.13;;;9.60;99.90;;;;;;5084681;28;20119;-53
2021/03/16 11:25:22;;;;;;;1.13;0.82;;;9.70;99.90;;;;;;5082397;28;20032;-55
2021/03/16 11:27:47;;;;;;;0.60;0.60;;;9.60;99.90;;;;;;5057918;28;20548;-51
2021/03/16 11:30:14;;;;;;;2.28;1.70;;;9.60;99.90;;;;;;5082711;28;20036;-53
2021/03/16 11:32:39;;;;;;;4.47;1.88;;;10.00;99.90;;;;;;5085033;28;20507;-53
2021/03/16 11:35:06;;;;;;;1.50;1.40;;;10.10;99.90;;;;;;5052835;28;20044;-49
2021/03/16 11:37:32;;;;;;;1.77;1.40;;;10.00;99.90;;;;;;5073581;28;20032;-52
2021/03/16 11:39:57;;;;;;;2.53;1.85;;;9.90;99.90;;;;;;5073829;28;20074;-50
2021/03/16 11:42:23;;;;;;;0.55;0.55;;;10.00;99.90;;;;;;5075818;28;20028;-53
2021/03/16 11:44:49;;;;;;;2.40;1.85;;;10.00;99.90;;;;;;5056890;28;20032;-50
2021/03/16 11:47:19;;;;;;;1.48;1.30;;;10.10;99.90;;;;;;5057044;28;20047;-52
2021/03/16 11:49:45;;;;;;;3.25;1.75;;;10.10;99.90;;;;;;5073784;28;20094;-51
2021/03/16 11:52:11;;;;;;;2.13;1.85;;;10.20;99.90;;;;;;5075323;28;20051;-52
2021/03/16 11:54:37;;;;;;;1.27;1.08;;;10.10;99.90;;;;;;5075589;28;20052;-53
2021/03/16 11:57:03;;;;;;;1.50;1.25;;;10.00;99.90;;;;;;5075623;28;20029;-52
2021/03/16 11:59:29;;;;;;;1.20;1.05;;;9.90;99.90;;;;;;5040007;28;20035;-54
2021/03/16 12:01:54;;;;;;;0.52;0.52;;;9.90;99.90;;;;;;5075570;28;20035;-52
2021/03/16 12:04:20;;;;;;;1.58;0.95;;;10.30;99.90;;;;;;5073549;28;20365;-50
2021/03/16 12:06:46;;;;;;;0.90;0.90;;;10.40;99.90;;;;;;5076800;28;20077;-51
2021/03/16 12:09:12;;;;;;;1.40;1.13;;;10.30;99.90;;;;;;5084332;28;20047;-53
2021/03/16 12:11:38;;;;;;;2.10;1.40;;;;;;;;;;5076026;28;20028;-50
2021/03/16 12:14:04;;;;;;;0.88;0.88;;;10.50;99.90;;;;;;5051750;28;20050;-47
2021/03/16 12:16:31;;;;;;;0.85;0.85;;;10.50;99.90;;;;;;5075833;28;20375;-50
2021/03/16 12:18:57;;;;;;;1.42;0.93;;;10.60;99.90;;;;;;5039077;28;20060;-52
2021/03/16 12:21:23;;;;;;;1.02;0.75;;;10.50;99.90;;;;;;5056489;28;20414;-53
2021/03/16 12:23:50;;;;;;;1.20;1.10;;;10.30;99.90;;;;;;5033813;28;20115;-48
2021/03/16 12:26:35;;;;;;;0.65;0.65;;;10.30;99.90;;;;;;5012872;28;20092;-45
2021/03/16 12:29:01;;;;;;;0.47;0.47;;;10.20;99.90;;;;;;4986352;28;20045;-49
2021/03/16 12:31:27;;;;;;;1.05;0.80;;;10.20;99.90;;;;;;5024591;28;20034;-47
2021/03/16 12:34:12;;;;;;;1.15;1.00;;;10.30;99.90;;;;;;5038727;28;20069;-47
2021/03/16 12:36:38;;;;;;;3.17;1.95;;;10.30;99.90;;;;;;4995751;28;20045;-47
2021/03/16 12:39:06;;;;;;;2.08;1.50;;;10.70;99.90;;;;;;4998816;28;20068;-46
2021/03/16 12:41:33;;;;;;;1.20;1.05;;;10.70;99.90;;;;;;4965782;28;20042;-51
2021/03/16 12:43:59;;;;;;;1.55;1.08;;;10.60;99.90;;;;;;4988927;28;20034;-48
2021/03/16 12:46:24;;;;;;;1.35;1.13;;;10.60;99.90;;;;;;5003520;28;20323;-45
2021/03/16 12:48:50;;;;;;;1.27;1.00;;;10.60;99.90;;;;;;4978263;28;20050;-44
2021/03/16 12:51:16;;;;;;;1.90;1.23;;;10.70;99.90;;;;;;4998764;28;20050;-46
2021/03/16 12:54:02;;;;;;;1.10;0.73;;;10.50;99.90;;;;;;4999633;28;20030;-45
2021/03/16 12:56:27;;;;;;;1.50;0.98;;;10.40;99.90;;;;;;4984135;28;20101;-48
2021/03/16 12:58:53;;;;;;;4.47;2.33;;;10.30;99.90;;;;;;4943135;28;20122;-46
2021/03/16 13:01:20;;;;;;;6.53;3.13;;;10.30;99.90;;;;;;4893499;28;20045;-48
2021/03/16 13:03:46;;;;;;;2.58;1.50;;;10.30;99.90;;;;;;4973248;28;20482;-47
2021/03/16 13:06:15;;;;;;;4.05;3.00;;;10.30;99.90;;;;;;4972977;28;20121;-49